Time;durP1;ratioP1;P1;durP2;ratioP2;P2;SDS_P1;SDS_P2;PMS_P1;PMS_P2;Temp;Humidity;BMP_temperature;BMP_pressure;BME280_temperature;BME280_humidity;BME280_pressure;Samples;Min_cycle;Max_cycle;Signal;HPM_P1;HPM_P2
2022/01/25 00:09:09;;;;;;;17.23;11.13;;;;;;;-8.83;96.39;101245.97;5013325;28;20050;-74
2022/01/25 00:25:45;;;;;;;9.40;5.88;;;;;;;-8.83;96.65;101194.53;4995244;28;20451;-72
2022/01/25 00:29:11;;;;;;;40.72;19.35;;;;;;;-8.82;96.53;101184.47;4994528;28;20502;-72
2022/01/25 00:31:18;;;;;;;8.20;7.00;;;;;;;-8.81;96.23;101178.59;4994630;28;20054;-72
2022/01/25 00:33:46;;;;;;;35.67;14.52;;;;;;;-8.83;96.73;101182.72;5010304;28;20537;-72
2022/01/25 00:36:14;;;;;;;24.33;12.77;;;;;;;-8.80;96.73;101182.84;4978379;28;20050;-72
2022/01/25 00:38:40;;;;;;;62.30;25.55;;;;;;;-8.78;96.86;101182.94;4978056;28;20108;-73
2022/01/25 00:41:06;;;;;;;58.85;24.63;;;;;;;-8.81;97.12;101178.59;4979525;28;20041;-73
2022/01/25 00:43:33;;;;;;;26.55;13.35;;;;;;;-8.79;97.29;101166.88;5012622;28;20046;-73
2022/01/25 00:46:04;;;;;;;38.58;16.92;;;;;;;-8.75;96.96;101175.47;5012958;28;20116;-73
2022/01/25 00:48:55;;;;;;;43.28;17.95;;;;;;;-8.80;96.67;101160.06;5012429;28;20081;-74
2022/01/25 00:54:05;;;;;;;36.20;17.52;;;;;;;-8.76;96.88;101156.88;5013151;28;20141;-73
2022/01/25 00:56:38;;;;;;;41.75;18.55;;;;;;;-8.78;96.84;101150.91;5012252;28;20046;-74
2022/01/25 00:59:06;;;;;;;31.17;15.05;;;;;;;-8.77;96.53;101140.00;5012526;28;20049;-72
2022/01/25 01:01:33;;;;;;;47.05;20.38;;;;;;;-8.77;96.51;101140.00;5013143;28;20120;-73
2022/01/25 01:03:59;;;;;;;37.78;16.73;;;;;;;-8.78;95.84;101143.31;5011849;28;20532;-71
2022/01/25 01:06:26;;;;;;;40.95;17.77;;;;;;;-8.77;96.67;101140.00;4994595;28;20045;-73
2022/01/25 01:08:53;;;;;;;29.38;15.48;;;;;;;-8.75;96.31;101129.94;4993696;28;20045;-71
2022/01/25 01:11:26;;;;;;;38.60;18.40;;;;;;;-8.75;96.39;101135.00;4993807;28;20433;-72
2022/01/25 01:43:53;;;;;;;52.60;20.98;;;;;;;-8.76;96.86;101075.94;5010447;28;20041;-73
2022/01/25 01:49:10;;;;;;;36.70;17.23;;;;;;;-8.75;96.80;101077.69;5011040;28;20139;-73
2022/01/25 01:51:44;;;;;;;39.22;19.00;;;;;;;-8.78;96.90;101067.44;5010375;28;20517;-73
2022/01/25 01:54:11;;;;;;;14.25;9.13;;;;;;;-8.80;96.48;101061.41;4993278;28;20045;-73
2022/01/25 01:56:38;;;;;;;13.73;9.73;;;;;;;-8.83;96.29;101057.94;4992397;28;20228;-73
2022/01/25 01:59:11;;;;;;;35.10;16.42;;;;;;;-8.85;96.56;101055.31;5011096;28;20580;-72
2022/01/25 02:01:38;;;;;;;24.98;12.93;;;;;;;-8.88;96.25;101054.31;4992309;28;20050;-72
2022/01/25 02:04:05;;;;;;;34.88;16.35;;;;;;;-8.90;96.52;101046.69;4993585;28;20268;-73
2022/01/25 02:06:32;;;;;;;42.20;18.95;;;;;;;-8.90;96.61;101030.66;5011135;28;20045;-72
2022/01/25 02:08:58;;;;;;;31.42;15.05;;;;;;;-8.85;96.60;101024.09;4976864;28;20050;-73
2022/01/25 02:11:24;;;;;;;12.90;9.00;;;;;;;-8.92;96.42;101017.06;5010409;28;20065;-72
2022/01/25 02:13:50;;;;;;;32.15;15.18;;;;;;;-8.86;96.37;101025.75;4992564;28;20587;-73
2022/01/25 02:24:30;;;;;;;25.52;12.48;;;;;;;-8.90;96.61;101021.41;4992727;28;20064;-72
2022/01/25 02:26:57;;;;;;;32.83;14.65;;;;;;;-8.93;96.02;101011.13;4992435;28;20131;-72
2022/01/25 02:29:23;;;;;;;30.35;14.68;;;;;;;-8.91;95.96;101004.50;4976534;28;20082;-73
2022/01/25 02:31:49;;;;;;;28.73;15.10;;;;;;;-8.91;95.79;101003.63;5009760;28;20042;-72
2022/01/25 02:34:15;;;;;;;39.58;19.88;;;;;;;-8.94;95.86;100994.25;4992770;28;20050;-72
2022/01/25 02:36:41;;;;;;;33.47;16.15;;;;;;;-8.91;96.19;100999.44;4975983;28;20046;-72
2022/01/25 02:39:08;;;;;;;29.75;15.20;;;;;;;-8.88;95.89;100991.97;4992319;28;20472;-71
2022/01/25 02:41:35;;;;;;;19.75;10.85;;;;;;;-8.90;95.76;100995.25;5010010;28;20042;-72
2022/01/25 02:44:03;;;;;;;11.80;7.90;;;;;;;-8.88;96.02;100998.69;5009630;28;20050;-73
2022/01/25 02:49:00;;;;;;;41.90;18.75;;;;;;;-8.83;95.78;100982.88;4992283;28;20518;-72
2022/01/25 02:51:30;;;;;;;32.22;17.35;;;;;;;-8.85;95.73;100966.78;4992709;28;20046;-72
2022/01/25 02:53:57;;;;;;;26.10;13.75;;;;;;;-8.80;95.81;100967.81;4975820;28;20046;-72
2022/01/25 02:56:23;;;;;;;27.10;14.73;;;;;;;-8.83;96.00;100962.66;4992004;28;20042;-73
2022/01/25 02:58:49;;;;;;;23.75;13.35;;;;;;;-8.78;96.01;100966.25;4992087;28;20049;-73
2022/01/25 03:01:15;;;;;;;26.90;15.63;;;;;;;-8.80;95.76;100967.81;4998503;28;20057;-72
2022/01/25 03:03:41;;;;;;;34.83;18.08;;;;;;;-8.76;95.63;100969.69;5024568;28;20042;-73
2022/01/25 03:06:08;;;;;;;28.13;14.95;;;;;;;-8.77;95.38;100962.06;5009810;28;20081;-72
2022/01/25 03:09:27;;;;;;;30.27;13.55;;;;;;;-8.78;95.34;100971.31;5008713;28;20473;-72
2022/01/25 03:11:55;;;;;;;25.63;12.45;;;;;;;-8.78;95.74;100971.31;5022290;28;20061;-72
2022/01/25 03:14:25;;;;;;;3.60;3.40;;;;;;;-8.82;94.90;100966.91;5015821;28;20053;-72
2022/01/25 03:22:19;;;;;;;12.40;9.05;;;;;;;-8.86;95.25;100967.59;5014805;28;20056;-73
2022/01/25 03:24:45;;;;;;;22.45;11.85;;;;;;;-8.81;95.01;100971.19;5014904;28;20099;-72
2022/01/25 03:27:11;;;;;;;15.00;9.93;;;;;;;-8.83;95.45;100967.72;5014686;28;20058;-72
2022/01/25 03:29:37;;;;;;;6.35;5.85;;;;;;;-8.86;95.33;100970.13;5014489;28;20053;-72
2022/01/25 03:32:04;;;;;;;26.63;12.48;;;;;;;-8.84;95.55;100970.19;4996501;28;20068;-72
2022/01/25 03:34:30;;;;;;;27.67;13.32;;;;;;;-8.85;94.97;100964.25;5014164;28;20120;-72
2022/01/25 03:36:56;;;;;;;34.28;16.48;;;;;;;-8.86;94.96;100962.53;4964092;28;20054;-72
2022/01/25 03:39:22;;;;;;;7.05;5.80;;;;;;;-8.92;95.24;100962.28;4996321;28;20042;-72
2022/01/25 03:41:48;;;;;;;15.40;9.50;;;;;;;-8.91;95.18;100953.91;4995657;28;20058;-72
2022/01/25 03:44:17;;;;;;;34.40;16.83;;;;;;;-8.90;95.19;100955.66;5013379;28;20093;-72
2022/01/25 03:51:59;;;;;;;18.75;10.65;;;;;;;-8.89;95.13;100947.22;5013782;28;20177;-72
2022/01/25 03:54:25;;;;;;;44.72;22.15;;;;;;;-8.92;95.02;100947.09;4964269;28;20038;-73
2022/01/25 03:56:51;;;;;;;39.95;18.05;;;;;;;-8.93;95.25;100940.31;5014930;28;20080;-70
2022/01/25 03:59:20;;;;;;;39.75;17.30;;;;;;;-8.87;95.32;100937.19;5011813;28;20050;-71
2022/01/25 04:01:46;;;;;;;48.38;21.38;;;;;;;-8.88;95.17;100930.41;4981009;28;20054;-71
2022/01/25 04:04:16;;;;;;;29.42;14.73;;;;;;;-8.92;95.34;100926.88;4995769;28;20144;-71
2022/01/25 04:06:49;;;;;;;42.70;21.55;;;;;;;-8.96;95.07;100925.03;5013168;28;20054;-71
2022/01/25 04:09:16;;;;;;;15.02;8.88;;;;;;;-8.96;95.51;100922.50;4989428;28;20045;-72
2022/01/25 04:11:42;;;;;;;53.90;24.67;;;;;;;-8.96;95.42;100919.13;5004406;28;20049;-72
2022/01/25 04:14:08;;;;;;;39.10;17.85;;;;;;;-8.98;95.34;100916.53;4991461;28;20042;-72
2022/01/25 04:17:00;;;;;;;28.17;14.95;;;;;;;-8.91;95.24;100913.44;5013144;28;20041;-71
2022/01/25 04:27:32;;;;;;;40.95;20.10;;;;;;;-8.98;94.64;100911.47;4999151;28;20048;-71
2022/01/25 04:29:58;;;;;;;24.80;14.13;;;;;;;-9.01;95.27;100893.66;5012723;28;20088;-71
2022/01/25 04:32:35;;;;;;;14.70;8.82;;;;;;;-8.99;95.46;100895.44;4997179;28;20053;-71
2022/01/25 04:35:14;;;;;;;28.92;16.33;;;;;;;-8.94;95.07;100898.16;5014438;28;20072;-71
2022/01/25 04:54:10;;;;;;;13.60;8.27;;;;;;;-9.01;95.24;100884.41;5012968;28;20049;-72
2022/01/25 04:57:25;;;;;;;22.50;14.40;;;;;;;-9.01;95.08;100878.47;5031257;28;20049;-71
2022/01/25 05:02:00;;;;;;;29.77;16.15;;;;;;;-9.06;95.03;100873.22;5030585;28;20154;-71
2022/01/25 05:04:31;;;;;;;27.95;14.68;;;;;;;-9.10;94.99;100862.94;5030832;28;20111;-72
2022/01/25 05:07:06;;;;;;;29.38;12.25;;;;;;;-9.09;95.36;100852.00;5013036;28;20049;-71
2022/01/25 05:09:34;;;;;;;20.60;12.50;;;;;;;-9.12;95.04;100856.94;5014536;28;20183;-72
2022/01/25 05:12:02;;;;;;;30.80;17.60;;;;;;;-9.10;95.34;100855.38;5030207;28;20072;-72
2022/01/25 05:14:34;;;;;;;14.38;6.55;;;;;;;-9.15;95.31;100861.88;5013132;28;20068;-71
2022/01/25 05:17:05;;;;;;;19.15;12.90;;;;;;;-9.11;95.21;100858.69;5032135;28;20050;-72
2022/01/25 05:24:42;;;;;;;21.70;13.57;;;;;;;-9.17;94.69;100843.28;5010431;28;20144;-71
2022/01/25 05:27:09;;;;;;;11.48;7.80;;;;;;;-9.15;94.83;100841.66;5009543;28;20050;-71
2022/01/25 05:29:35;;;;;;;24.83;12.20;;;;;;;-9.15;94.67;100834.94;4992888;28;20045;-72
2022/01/25 05:32:05;;;;;;;17.63;9.48;;;;;;;-9.18;94.42;100846.59;5010446;28;20050;-72
2022/01/25 05:34:31;;;;;;;17.48;10.15;;;;;;;-9.14;94.64;100841.75;5009253;28;20201;-72
2022/01/25 05:36:57;;;;;;;16.48;9.18;;;;;;;-9.11;94.40;100838.47;4992487;28;20050;-72
2022/01/25 05:39:41;;;;;;;23.77;13.43;;;;;;;-9.13;94.66;100829.97;5010448;28;20053;-72
2022/01/25 05:42:27;;;;;;;12.10;7.80;;;;;;;-9.08;94.12;100825.94;5010277;28;20057;-72
2022/01/25 05:47:30;;;;;;;18.42;12.35;;;;;;;-9.05;94.71;100828.56;5010462;28;20061;-72
2022/01/25 05:49:57;;;;;;;21.95;13.07;;;;;;;-8.99;94.49;100818.69;5010310;28;20070;-72
2022/01/25 05:52:22;;;;;;;21.77;13.40;;;;;;;-9.00;94.28;100811.94;5010434;28;20088;-72
2022/01/25 05:54:48;;;;;;;19.08;11.40;;;;;;;-9.00;94.51;100796.75;4992700;28;20128;-72
2022/01/25 05:57:17;;;;;;;34.78;17.58;;;;;;;-9.12;94.99;100803.84;4992646;28;20061;-72
2022/01/25 05:59:43;;;;;;;8.48;5.88;;;;;;;-9.12;95.62;100801.34;4992512;28;20041;-71
2022/01/25 06:02:10;;;;;;;22.05;12.27;;;;;;;-9.09;95.84;100809.91;4976083;28;20378;-72
2022/01/25 06:04:36;;;;;;;20.40;10.68;;;;;;;-9.02;96.49;100804.28;5009975;28;20594;-72
2022/01/25 06:07:02;;;;;;;22.90;12.88;;;;;;;-8.97;96.31;100791.81;4976196;28;20046;-71
2022/01/25 06:09:28;;;;;;;21.67;12.82;;;;;;;-9.02;95.46;100789.09;5009903;28;20050;-72
2022/01/25 06:11:54;;;;;;;36.20;19.30;;;;;;;-9.01;95.92;100795.03;5009662;28;20506;-72
2022/01/25 06:14:20;;;;;;;39.83;22.65;;;;;;;-9.00;96.07;100791.72;5009875;28;20172;-72
2022/01/25 06:16:46;;;;;;;18.88;11.35;;;;;;;-9.01;95.66;100790.84;4992146;28;20071;-71
2022/01/25 06:19:13;;;;;;;24.27;15.25;;;;;;;-8.96;95.34;100788.47;5007724;28;20053;-73
2022/01/25 06:21:39;;;;;;;14.90;9.68;;;;;;;-8.88;95.50;100789.63;4999703;28;20534;-72
2022/01/25 06:24:05;;;;;;;27.08;14.98;;;;;;;-8.89;95.07;100785.38;5008327;28;20521;-72
2022/01/25 06:26:32;;;;;;;15.00;9.55;;;;;;;-8.86;94.81;100784.63;4991541;28;20095;-72
2022/01/25 06:29:00;;;;;;;32.65;14.63;;;;;;;-8.85;94.81;100761.06;5011316;28;20064;-72
2022/01/25 06:31:27;;;;;;;23.77;12.02;;;;;;;-8.82;95.22;100762.03;5012068;28;20101;-71
2022/01/25 06:33:54;;;;;;;30.15;17.92;;;;;;;-8.88;95.10;100756.75;5011769;28;20049;-73
2022/01/25 06:36:20;;;;;;;35.60;19.42;;;;;;;-8.85;95.82;100756.00;5029675;28;20100;-72
2022/01/25 06:38:46;;;;;;;14.23;9.23;;;;;;;-8.79;94.73;100744.44;5028195;28;20049;-71
2022/01/25 06:41:12;;;;;;;21.90;12.90;;;;;;;-8.77;94.83;100750.44;5029217;28;20045;-72
2022/01/25 06:43:39;;;;;;;27.92;14.35;;;;;;;-8.68;95.42;100755.81;5029536;28;20049;-72
2022/01/25 06:46:18;;;;;;;22.63;12.85;;;;;;;-8.67;94.61;100746.56;5029715;28;20088;-72
2022/01/25 06:48:44;;;;;;;29.05;14.40;;;;;;;-8.59;95.09;100751.09;5015521;28;20136;-74
2022/01/25 06:51:10;;;;;;;35.40;17.25;;;;;;;-8.56;95.08;100746.13;5010959;28;20085;-72
2022/01/25 06:53:39;;;;;;;15.30;10.15;;;;;;;-8.45;94.34;100744.00;5013931;28;20116;-73
2022/01/25 06:56:06;;;;;;;35.58;16.92;;;;;;;-8.56;93.86;100745.25;5014295;28;20100;-73
2022/01/25 06:58:32;;;;;;;28.23;13.75;;;;;;;-8.57;94.14;100749.47;5013412;28;20049;-73
2022/01/25 07:00:58;;;;;;;22.90;13.05;;;;;;;-8.64;94.16;100734.03;5013037;28;20549;-72
2022/01/25 07:03:24;;;;;;;35.25;17.73;;;;;;;-8.72;94.48;100733.75;5012895;28;20042;-73
2022/01/25 07:05:50;;;;;;;28.17;15.90;;;;;;;-8.71;94.51;100730.41;4996601;28;20054;-72
2022/01/25 07:08:16;;;;;;;19.70;12.25;;;;;;;-8.69;94.83;100722.88;5013871;28;20046;-72
2022/01/25 07:10:42;;;;;;;21.17;12.27;;;;;;;-8.70;94.84;100729.59;5018999;28;20049;-72
2022/01/25 07:13:08;;;;;;;34.72;16.52;;;;;;;-8.52;94.83;100727.72;5036470;28;20056;-73
2022/01/25 07:15:34;;;;;;;25.60;14.25;;;;;;;-8.52;94.68;100717.59;5022504;28;20089;-73
2022/01/25 07:18:01;;;;;;;36.40;20.05;;;;;;;-8.56;94.50;100720.81;4998027;28;20045;-74
2022/01/25 07:20:27;;;;;;;33.08;18.17;;;;;;;-8.49;94.66;100712.66;4985307;28;20054;-74
2022/01/25 07:22:54;;;;;;;29.25;14.27;;;;;;;-8.41;94.43;100705.34;5005651;28;20046;-71
2022/01/25 07:25:25;;;;;;;23.83;12.70;;;;;;;-8.37;93.83;100706.25;5030485;28;20053;-74
2022/01/25 07:27:51;;;;;;;28.90;15.75;;;;;;;-8.24;92.79;100709.25;4993666;28;20045;-75
2022/01/25 07:30:17;;;;;;;26.83;15.75;;;;;;;-8.12;92.35;100701.22;5021860;28;20079;-74
2022/01/25 07:32:44;;;;;;;22.67;12.35;;;;;;;-8.06;91.81;100693.81;5015351;28;20045;-74
2022/01/25 07:35:10;;;;;;;21.98;13.35;;;;;;;-8.06;91.28;100701.41;5006214;28;20046;-75
2022/01/25 07:37:37;;;;;;;27.58;15.85;;;;;;;-8.18;91.95;100693.41;5028616;28;20037;-75
2022/01/25 07:40:04;;;;;;;15.00;9.25;;;;;;;-8.20;92.24;100697.53;4998157;28;20048;-75
2022/01/25 07:42:34;;;;;;;8.63;7.22;;;;;;;-8.17;92.30;100685.00;5005304;28;20058;-75
2022/01/25 07:45:00;;;;;;;25.77;15.38;;;;;;;-8.24;92.75;100685.59;5004950;28;20054;-74
2022/01/25 07:47:26;;;;;;;21.52;13.00;;;;;;;-8.31;92.43;100676.13;5026834;28;20057;-75
2022/01/25 07:49:53;;;;;;;12.07;8.98;;;;;;;-8.21;93.07;100662.94;5023073;28;20116;-74
2022/01/25 07:52:21;;;;;;;24.10;13.40;;;;;;;-8.11;92.86;100665.78;5028513;28;20072;-74
2022/01/25 07:54:47;;;;;;;17.02;11.10;;;;;;;-8.05;92.05;100662.63;5021857;28;20050;-76
2022/01/25 07:57:13;;;;;;;6.15;5.57;;;;;;;-8.13;92.28;100659.84;5003345;28;20050;-74
2022/01/25 07:59:39;;;;;;;10.73;8.70;;;;;;;-8.11;91.97;100655.66;5013201;28;20042;-74
2022/01/25 08:02:05;;;;;;;13.80;9.90;;;;;;;-8.06;92.19;100663.41;5010308;28;20050;-76
2022/01/25 08:04:31;;;;;;;26.95;14.18;;;;;;;-8.10;91.88;100656.53;4999189;28;20044;-75
2022/01/25 08:06:58;;;;;;;20.95;12.73;;;;;;;-8.05;92.08;100652.50;4980181;28;20045;-75
2022/01/25 08:09:24;;;;;;;34.38;16.55;;;;;;;-7.98;91.54;100646.78;4997227;28;20065;-76
2022/01/25 08:11:50;;;;;;;19.85;13.07;;;;;;;-7.90;92.12;100650.44;5014411;28;20050;-76
2022/01/25 08:14:19;;;;;;;33.63;17.70;;;;;;;-7.99;91.82;100634.94;4998210;28;20107;-75
2022/01/25 08:16:49;;;;;;;11.45;7.03;;;;;;;-7.89;92.00;100631.91;4981734;28;20046;-75
2022/01/25 08:19:17;;;;;;;20.85;13.27;;;;;;;-7.82;91.45;100625.34;5015265;28;20143;-75
2022/01/25 08:21:46;;;;;;;21.63;14.27;;;;;;;-7.86;90.25;100624.38;4999838;28;20073;-75
2022/01/25 08:24:13;;;;;;;18.08;12.10;;;;;;;-8.07;91.15;100623.72;5017485;28;20200;-75
2022/01/25 08:26:40;;;;;;;18.38;9.60;;;;;;;-8.01;91.96;100628.97;4984769;28;20124;-75
2022/01/25 08:29:09;;;;;;;18.55;11.75;;;;;;;-7.91;92.18;100623.38;5002034;28;20057;-76
2022/01/25 08:31:35;;;;;;;16.90;11.43;;;;;;;-7.80;91.61;100619.50;4981943;28;20062;-75
2022/01/25 08:34:02;;;;;;;18.35;12.25;;;;;;;-7.79;90.85;100618.72;5017586;28;20194;-75
2022/01/25 08:36:31;;;;;;;15.25;9.85;;;;;;;-7.73;90.63;100611.28;4984913;28;20042;-75
2022/01/25 08:38:57;;;;;;;20.77;13.05;;;;;;;-7.65;89.59;100617.44;5001323;28;20539;-76
2022/01/25 08:41:23;;;;;;;21.52;12.93;;;;;;;-7.75;90.41;100615.44;4982780;28;20046;-75
2022/01/25 08:43:49;;;;;;;24.25;13.77;;;;;;;-7.74;90.33;100606.16;5017722;28;20061;-75
2022/01/25 08:46:15;;;;;;;23.20;12.98;;;;;;;-7.70;90.39;100593.63;5017801;28;20046;-75
2022/01/25 08:48:42;;;;;;;12.88;9.15;;;;;;;-7.54;89.84;100590.75;5000570;28;20468;-76
2022/01/25 08:51:08;;;;;;;18.33;12.07;;;;;;;-7.47;89.07;100587.56;5017989;28;20312;-76
2022/01/25 08:53:34;;;;;;;21.55;13.40;;;;;;;-7.54;89.54;100573.00;5000925;28;20053;-75
2022/01/25 08:56:00;;;;;;;21.77;13.80;;;;;;;-7.50;88.99;100571.41;4999733;28;20064;-74
2022/01/25 08:58:26;;;;;;;15.65;9.95;;;;;;;-7.39;88.92;100570.88;4998528;28;20137;-74
2022/01/25 09:00:52;;;;;;;17.33;10.32;;;;;;;-7.33;88.96;100561.75;4998446;28;20049;-75
2022/01/25 09:03:18;;;;;;;23.25;14.95;;;;;;;-7.23;89.08;100549.34;5015642;28;20141;-74
2022/01/25 09:05:44;;;;;;;8.18;6.97;;;;;;;-7.19;88.95;100550.28;5015515;28;20494;-74
2022/01/25 09:08:16;;;;;;;18.75;10.70;;;;;;;-7.24;88.59;100544.25;4983187;28;20060;-75
2022/01/25 09:10:42;;;;;;;16.60;11.65;;;;;;;-7.20;89.21;100543.53;5016676;28;20409;-75
2022/01/25 09:13:08;;;;;;;26.05;15.32;;;;;;;-7.23;88.20;100540.91;5000486;28;20050;-75
2022/01/25 09:15:34;;;;;;;32.47;19.38;;;;;;;-7.36;88.64;100538.84;4985418;28;20050;-75
2022/01/25 09:18:00;;;;;;;33.83;16.75;;;;;;;-7.30;88.91;100534.81;4985372;28;20058;-74
2022/01/25 09:20:26;;;;;;;24.38;13.65;;;;;;;-7.17;89.16;100538.53;5020486;28;20050;-75
2022/01/25 09:22:52;;;;;;;27.05;17.08;;;;;;;-7.14;87.88;100525.94;5018805;28;20084;-75
2022/01/25 09:25:21;;;;;;;38.08;20.15;;;;;;;-7.16;88.51;100530.94;5016159;28;20057;-75
2022/01/25 09:27:49;;;;;;;27.92;15.25;;;;;;;-7.17;88.62;100530.91;4998959;28;20100;-74
2022/01/25 09:30:18;;;;;;;23.63;13.90;;;;;;;-7.02;88.50;100531.31;4998000;28;20049;-75
2022/01/25 09:32:46;;;;;;;26.75;15.88;;;;;;;-7.05;87.56;100533.78;5000631;28;20046;-75
2022/01/25 09:35:12;;;;;;;25.92;13.65;;;;;;;-7.09;88.22;100532.81;5018485;28;20510;-75
2022/01/25 09:37:41;;;;;;;28.27;14.70;;;;;;;-7.03;89.25;100529.59;5003140;28;20062;-75
2022/01/25 09:40:07;;;;;;;26.85;14.25;;;;;;;-6.97;88.52;100517.09;5002182;28;20050;-75
2022/01/25 09:42:36;;;;;;;25.42;14.18;;;;;;;-7.00;87.71;100512.78;5018729;28;20057;-75
2022/01/25 09:45:04;;;;;;;26.90;16.17;;;;;;;-6.89;88.87;100515.59;5020257;28;20590;-74
2022/01/25 09:47:30;;;;;;;28.10;15.23;;;;;;;-6.99;88.71;100504.34;5001786;28;20049;-75
2022/01/25 09:49:58;;;;;;;35.80;20.67;;;;;;;-7.05;89.13;100500.81;5018626;28;20084;-74
2022/01/25 09:52:24;;;;;;;25.65;14.07;;;;;;;-6.93;89.28;100496.03;5001072;28;20275;-75
2022/01/25 09:54:54;;;;;;;23.38;12.88;;;;;;;-6.88;88.57;100489.41;5000657;28;20053;-75
2022/01/25 09:57:21;;;;;;;26.90;13.82;;;;;;;-6.82;88.35;100479.41;5000952;28;20544;-75
2022/01/25 09:59:48;;;;;;;34.70;17.20;;;;;;;-7.01;88.36;100472.16;5001289;28;20072;-76
2022/01/25 10:02:37;;;;;;;30.73;13.27;;;;;;;-7.09;89.03;100459.28;4999984;28;20053;-75
2022/01/25 10:05:17;;;;;;;40.47;17.95;;;;;;;-7.05;89.93;100450.06;4965962;28;20052;-74
2022/01/25 10:07:43;;;;;;;29.55;15.93;;;;;;;-6.98;88.82;100455.34;4996751;28;20037;-75
2022/01/25 10:10:09;;;;;;;33.22;14.88;;;;;;;-6.89;88.47;100452.16;4980112;28;20101;-75
2022/01/25 10:12:36;;;;;;;44.30;16.92;;;;;;;-6.86;88.65;100448.03;5015142;28;20518;-75
2022/01/25 10:15:01;;;;;;;40.70;19.58;;;;;;;-6.88;88.89;100438.66;5016402;28;20108;-75
2022/01/25 10:17:32;;;;;;;47.42;22.75;;;;;;;-6.88;88.97;100433.59;5015666;28;20129;-75
2022/01/25 10:20:01;;;;;;;18.50;10.07;;;;;;;-6.96;89.59;100430.84;5016290;28;20058;-75
2022/01/25 10:22:40;;;;;;;21.27;13.27;;;;;;;-6.89;90.06;100421.72;5016811;28;20057;-75
2022/01/25 10:25:07;;;;;;;25.35;13.20;;;;;;;-6.92;89.90;100421.63;5000517;28;20057;-75
2022/01/25 10:28:03;;;;;;;41.25;20.30;;;;;;;-6.93;89.58;100415.72;5017779;28;20053;-75
2022/01/25 10:30:31;;;;;;;25.40;14.40;;;;;;;-6.81;89.31;100407.53;5016959;28;20132;-74
2022/01/25 10:33:00;;;;;;;36.60;22.60;;;;;;;-6.96;89.17;100402.94;4997324;28;20526;-75
2022/01/25 10:35:26;;;;;;;32.03;16.55;;;;;;;-6.91;90.28;100398.84;5002646;28;20117;-75
2022/01/25 10:37:52;;;;;;;22.92;12.13;;;;;;;-6.94;90.23;100397.94;4967609;28;20045;-74
2022/01/25 10:40:35;;;;;;;31.13;17.98;;;;;;;-6.89;89.77;100386.19;5016248;28;20141;-75
2022/01/25 10:43:01;;;;;;;10.07;7.68;;;;;;;-6.79;89.79;100382.19;5002155;28;20046;-75
2022/01/25 10:45:27;;;;;;;27.95;14.52;;;;;;;-7.00;90.54;100380.03;4997887;28;20361;-75
2022/01/25 10:47:55;;;;;;;27.60;14.93;;;;;;;-6.98;90.73;100375.84;4998988;28;20053;-75
2022/01/25 10:50:22;;;;;;;20.17;11.75;;;;;;;-7.00;89.96;100367.34;4981190;28;20046;-74
2022/01/25 10:53:15;;;;;;;17.13;11.10;;;;;;;-7.08;90.68;100363.75;4978775;28;20157;-74
2022/01/25 10:55:42;;;;;;;20.08;12.77;;;;;;;-7.03;91.07;100364.72;4994886;28;20054;-74
2022/01/25 10:58:08;;;;;;;18.58;11.10;;;;;;;-6.99;89.80;100363.97;4966079;28;20576;-75
2022/01/25 11:00:41;;;;;;;28.33;16.60;;;;;;;-7.00;90.61;100352.13;5017979;28;20556;-75
2022/01/25 11:03:07;;;;;;;16.35;11.90;;;;;;;-6.90;90.12;100359.97;5000931;28;20536;-75
2022/01/25 11:05:36;;;;;;;19.90;12.25;;;;;;;-6.92;90.02;100350.59;5015292;28;20077;-75
2022/01/25 11:08:16;;;;;;;6.35;5.47;;;;;;;-7.01;90.03;100351.25;4984527;28;20517;-74
2022/01/25 11:10:48;;;;;;;21.58;12.10;;;;;;;-6.90;89.60;100352.34;4984144;28;20062;-75
2022/01/25 11:13:33;;;;;;;;;;;;;;;-6.88;90.44;100335.50;5018479;28;20129;-75
2022/01/25 11:16:02;;;;;;;11.63;6.82;;;;;;;-6.82;90.32;100336.44;5019801;28;19925;-75
2022/01/25 11:18:30;;;;;;;16.33;10.73;;;;;;;-6.89;90.49;100340.53;4984185;28;20046;-74
2022/01/25 11:20:57;;;;;;;23.60;12.52;;;;;;;-6.92;90.33;100323.56;5001895;28;20042;-74
2022/01/25 11:23:24;;;;;;;15.25;10.18;;;;;;;-6.98;89.96;100330.19;5020361;28;20042;-75
2022/01/25 11:25:50;;;;;;;7.25;5.68;;;;;;;-6.92;90.17;100326.09;4986857;28;20085;-74
2022/01/25 11:28:16;;;;;;;18.95;12.10;;;;;;;-7.09;90.47;100321.44;4986269;28;20081;-75
2022/01/25 11:30:42;;;;;;;12.77;9.20;;;;;;;-7.12;90.50;100319.72;5021015;28;20172;-75
2022/01/25 11:33:12;;;;;;;14.73;11.40;;;;;;;-7.14;90.45;100303.63;5000464;28;20092;-75
2022/01/25 11:35:40;;;;;;;16.90;11.63;;;;;;;-7.17;91.39;100303.56;5009318;28;20485;-75
2022/01/25 11:38:10;;;;;;;7.05;5.38;;;;;;;-7.19;90.42;100294.16;5023940;28;20054;-75
2022/01/25 11:40:41;;;;;;;10.55;6.97;;;;;;;-7.12;91.08;100280.81;5006513;28;20054;-74
2022/01/25 11:43:09;;;;;;;24.73;13.95;;;;;;;-7.08;90.70;100272.44;5023212;28;20425;-74
2022/01/25 11:45:38;;;;;;;15.40;10.57;;;;;;;-7.07;90.80;100279.25;4974593;28;20054;-75
2022/01/25 11:48:04;;;;;;;18.40;10.98;;;;;;;-7.03;90.61;100265.78;4989119;28;20122;-74
2022/01/25 11:50:43;;;;;;;18.17;11.60;;;;;;;-7.03;90.01;100263.25;5000830;28;20058;-74
2022/01/25 11:53:16;;;;;;;10.48;8.68;;;;;;;-7.08;90.30;100255.56;5020349;28;20049;-75
2022/01/25 11:55:48;;;;;;;12.15;8.75;;;;;;;-7.12;90.76;100253.78;5003477;28;20543;-75
2022/01/25 11:58:28;;;;;;;10.85;9.07;;;;;;;-7.20;90.49;100252.75;4990897;28;20099;-74
2022/01/25 12:01:03;;;;;;;13.25;10.02;;;;;;;-7.10;90.62;100243.69;5011159;28;20486;-73
2022/01/25 12:03:34;;;;;;;17.67;12.95;;;;;;;-7.12;90.94;100247.84;5011379;28;20081;-73
2022/01/25 12:06:24;;;;;;;10.68;7.88;;;;;;;-7.20;90.65;100239.22;5002677;28;20425;-73
2022/01/25 12:09:06;;;;;;;17.48;12.13;;;;;;;-7.16;91.43;100234.22;5011062;28;20053;-72
2022/01/25 12:11:46;;;;;;;9.13;6.97;;;;;;;-7.05;90.33;100231.94;4980238;28;20061;-77
2022/01/25 12:14:33;;;;;;;12.45;9.48;;;;;;;-7.02;90.53;100230.31;4989873;28;20061;-71
2022/01/25 12:17:02;;;;;;;11.30;9.18;;;;;;;-7.08;91.18;100222.59;5001746;28;20145;-72
2022/01/25 12:19:32;;;;;;;11.25;8.10;;;;;;;-7.14;90.32;100227.53;4999833;28;20084;-72
2022/01/25 12:21:59;;;;;;;14.15;9.27;;;;;;;-7.20;91.63;100222.34;5003647;28;20090;-71
2022/01/25 12:24:34;;;;;;;13.20;8.50;;;;;;;-7.30;91.86;100222.94;4996639;28;20050;-71
2022/01/25 12:27:26;;;;;;;12.65;9.82;;;;;;;-7.35;91.72;100228.72;4999433;28;20039;-71
2022/01/25 12:30:03;;;;;;;11.55;9.35;;;;;;;-7.32;91.26;100237.25;5001742;28;20557;-71
2022/01/25 12:32:35;;;;;;;7.22;6.03;;;;;;;-7.29;91.79;100236.47;4999850;28;20054;-71
2022/01/25 12:35:17;;;;;;;9.38;7.25;;;;;;;-7.29;91.67;100236.47;5003040;28;20056;-71
2022/01/25 12:37:44;;;;;;;6.60;5.57;;;;;;;-7.35;91.37;100242.25;4981896;28;20060;-71
2022/01/25 12:40:25;;;;;;;5.60;5.05;;;;;;;-7.36;91.29;100239.72;4997605;28;20053;-72
2022/01/25 12:42:59;;;;;;;11.00;7.70;;;;;;;-7.38;91.88;100237.13;4998664;28;20129;-72
2022/01/25 12:45:36;;;;;;;11.30;9.38;;;;;;;-7.44;91.73;100232.78;4995785;28;20054;-71
2022/01/25 12:48:13;;;;;;;14.40;10.25;;;;;;;-7.49;91.59;100229.25;5000333;28;20144;-71
2022/01/25 12:50:41;;;;;;;11.43;7.97;;;;;;;-7.39;91.72;100243.88;4999939;28;20046;-72
2022/01/25 12:53:08;;;;;;;8.93;5.75;;;;;;;-7.46;92.17;100248.78;4999008;28;20039;-72
2022/01/25 12:55:37;;;;;;;8.10;6.53;;;;;;;-7.45;92.18;100246.25;5005395;28;20042;-72
2022/01/25 12:58:03;;;;;;;13.63;10.50;;;;;;;-7.48;91.80;100246.19;5005017;28;20046;-72
2022/01/25 13:00:32;;;;;;;8.00;7.20;;;;;;;-7.50;91.68;100250.38;4986992;28;20131;-72
2022/01/25 13:03:20;;;;;;;6.90;6.10;;;;;;;-7.55;92.11;100249.41;4997846;28;20719;-72
2022/01/25 13:05:57;;;;;;;14.73;10.05;;;;;;;-7.58;92.23;100249.34;5001911;28;20104;-72
2022/01/25 13:08:31;;;;;;;5.80;5.30;;;;;;;-7.64;91.72;100254.25;5002972;28;20105;-71
2022/01/25 13:11:19;;;;;;;7.75;6.95;;;;;;;-7.69;91.88;100250.75;4988150;28;20137;-72
2022/01/25 13:13:59;;;;;;;14.60;10.27;;;;;;;-7.68;91.97;100249.06;4985004;28;20037;-72
2022/01/25 13:16:46;;;;;;;17.23;12.70;;;;;;;-7.70;92.29;100238.91;4978847;28;20088;-72